Wetterdaten: Woche 23.09.13 - 29.09.13 (KW39)
Datum Zeit Temp. A. Feuchte A. Luftdruck Regen Wind Richtung Taupunkt Windchill Windben
23.09.2013 00:00 14,8 C 72 % 1022,9 hPa 0,0 l/m 4,6 km/h N 9,7 C 14,8 C 16,5 km/h
23.09.2013 01:00 14,9 C 72 % 1022,8 hPa 0,0 l/m 5,6 km/h N 9,8 C 14,9 C 19,3 km/h
23.09.2013 02:00 14,6 C 73 % 1022,7 hPa 0,0 l/m 6,1 km/h N 9,8 C 14,4 C 20,5 km/h
23.09.2013 03:00 14,4 C 73 % 1022,1 hPa 0,0 l/m 8,0 km/h N 9,5 C 13,3 C 23,3 km/h
23.09.2013 04:00 15,2 C 69 % 1021,3 hPa 0,0 l/m 13,8 km/h N 9,4 C 11,8 C 31,8 km/h
23.09.2013 05:00 15,0 C 69 % 1021,2 hPa 0,0 l/m 13,4 km/h N 9,4 C 11,8 C 31,0 km/h
23.09.2013 06:00 15,3 C 68 % 1021,0 hPa 0,0 l/m 9,9 km/h N 9,4 C 13,5 C 29,8 km/h
23.09.2013 07:00 15,2 C 72 % 1020,8 hPa 0,0 l/m 13,7 km/h N 10,2 C 11,8 C 33,0 km/h
23.09.2013 08:00 15,9 C 70 % 1020,1 hPa 0,0 l/m 15,9 km/h N 10,4 C 12,1 C 32,2 km/h
23.09.2013 09:00 16,8 C 66 % 1019,9 hPa 0,0 l/m 17,3 km/h N 10,4 C 12,7 C 45,5 km/h
23.09.2013 10:00 17,6 C 65 % 1019,9 hPa 0,0 l/m 20,5 km/h N 11,0 C 13,1 C 42,3 km/h
23.09.2013 11:00 18,0 C 65 % 1019,9 hPa 0,0 l/m 18,3 km/h N 11,3 C 14,0 C 41,8 km/h
23.09.2013 12:00 17,1 C 68 % 1020,0 hPa 0,0 l/m 13,1 km/h N 11,1 C 14,3 C 32,6 km/h
23.09.2013 13:00 17,8 C 66 % 1019,6 hPa 0,0 l/m 12,3 km/h N 11,4 C 15,4 C 31,0 km/h
23.09.2013 14:00 18,2 C 65 % 1019,0 hPa 0,0 l/m 12,6 km/h N 11,5 C 15,8 C 29,0 km/h
23.09.2013 15:00 18,3 C 64 % 1018,5 hPa 0,0 l/m 12,9 km/h N 11,4 C 15,8 C 33,8 km/h
23.09.2013 16:00 18,1 C 64 % 1018,3 hPa 0,0 l/m 13,6 km/h N 11,1 C 15,4 C 29,8 km/h
23.09.2013 17:00 17,8 C 65 % 1018,1 hPa 0,0 l/m 9,8 km/h N 11,1 C 16,4 C 25,4 km/h
23.09.2013 18:00 17,6 C 67 % 1017,9 hPa 0,0 l/m 9,5 km/h N 11,3 C 16,3 C 25,7 km/h
23.09.2013 19:00 17,3 C 68 % 1017,8 hPa 0,0 l/m 8,6 km/h N 11,3 C 16,3 C 22,5 km/h
23.09.2013 20:00 17,3 C 69 % 1017,8 hPa 0,0 l/m 9,9 km/h N 11,5 C 15,7 C 26,5 km/h
23.09.2013 21:00 17,0 C 69 % 1017,9 hPa 0,0 l/m 9,3 km/h N 11,2 C 15,6 C 25,7 km/h
23.09.2013 22:00 17,0 C 67 % 1017,6 hPa 0,0 l/m 10,6 km/h N 10,8 C 15,2 C 27,0 km/h
23.09.2013 23:00 17,0 C 66 % 1017,4 hPa 0,0 l/m 11,0 km/h N 10,6 C 15,0 C 29,0 km/h
24.09.2013 00:00 16,8 C 65 % 1017,3 hPa 0,0 l/m 10,8 km/h N 10,1 C 14,8 C 27,8 km/h
24.09.2013 01:00 16,8 C 62 % 1016,9 hPa 0,0 l/m 9,0 km/h N 9,4 C 15,6 C 22,5 km/h
24.09.2013 02:00 16,8 C 62 % 1016,6 hPa 0,0 l/m 8,3 km/h N 9,5 C 15,9 C 22,1 km/h
24.09.2013 03:00 16,6 C 63 % 1016,0 hPa 0,0 l/m 9,8 km/h N 9,6 C 15,0 C 25,8 km/h
24.09.2013 04:00 16,3 C 65 % 1015,8 hPa 0,0 l/m 10,1 km/h N 9,7 C 14,6 C 26,9 km/h
24.09.2013 05:00 16,4 C 64 % 1015,4 hPa 0,0 l/m 11,6 km/h N 9,6 C 14,0 C 29,0 km/h
24.09.2013 06:00 16,1 C 66 % 1015,3 hPa 0,0 l/m 10,6 km/h N 9,6 C 14,1 C 25,3 km/h
24.09.2013 07:00 16,0 C 67 % 1015,6 hPa 0,0 l/m 8,4 km/h N 9,8 C 15,0 C 22,5 km/h
24.09.2013 08:00 15,9 C 69 % 1015,8 hPa 0,0 l/m 8,1 km/h N 10,1 C 15,0 C 20,5 km/h
24.09.2013 09:00 16,3 C 65 % 1015,9 hPa 0,0 l/m 11,7 km/h N 9,8 C 14,0 C 29,4 km/h
24.09.2013 10:00 16,8 C 63 % 1016,0 hPa 0,0 l/m 9,5 km/h N 9,5 C 15,3 C 26,6 km/h
24.09.2013 11:00 17,8 C 60 % 1015,5 hPa 0,0 l/m 7,3 km/h N 9,9 C 17,3 C 22,9 km/h
24.09.2013 12:00 18,2 C 60 % 1015,4 hPa 0,0 l/m 8,0 km/h N 10,3 C 17,4 C 26,1 km/h
24.09.2013 13:00 17,9 C 60 % 1015,2 hPa 0,0 l/m 9,8 km/h N 10,1 C 16,4 C 24,1 km/h
24.09.2013 14:00 18,3 C 62 % 1014,7 hPa 0,0 l/m 6,7 km/h N 10,8 C 18,1 C 19,7 km/h
24.09.2013 15:00 18,9 C 61 % 1014,1 hPa 0,0 l/m 6,7 km/h N 11,2 C 18,4 C 20,9 km/h
24.09.2013 16:00 19,2 C 61 % 1013,7 hPa 0,0 l/m 7,6 km/h N 11,6 C 18,7 C 20,9 km/h
24.09.2013 17:00 19,1 C 62 % 1013,2 hPa 0,0 l/m 5,7 km/h N 11,5 C 19,0 C 16,9 km/h
24.09.2013 18:00 18,4 C 65 % 1013,1 hPa 0,0 l/m 1,4 km/h N 11,7 C 18,4 C 7,7 km/h
24.09.2013 19:00 16,3 C 71 % 1013,3 hPa 0,0 l/m 0,0 km/h N 10,9 C 16,3 C 0,0 km/h
24.09.2013 20:00 13,8 C 79 % 1013,5 hPa 0,0 l/m 0,0 km/h N 10,1 C 13,8 C 0,0 km/h
24.09.2013 21:00 12,6 C 83 % 1013,6 hPa 0,0 l/m 0,0 km/h N 9,7 C 12,6 C 0,0 km/h
24.09.2013 22:00 12,1 C 84 % 1013,5 hPa 0,0 l/m 0,0 km/h N 9,4 C 12,1 C 0,0 km/h
24.09.2013 23:00 11,4 C 84 % 1013,6 hPa 0,0 l/m 0,0 km/h N 8,7 C 11,4 C 0,0 km/h
25.09.2013 00:00 10,9 C 83 % 1013,6 hPa 0,0 l/m 0,0 km/h N 8,1 C 10,9 C 0,0 km/h
25.09.2013 01:00 10,3 C 83 % 1013,8 hPa 0,0 l/m 0,0 km/h N 7,6 C 10,3 C 0,0 km/h
25.09.2013 02:00 9,8 C 83 % 1013,9 hPa 0,0 l/m 0,0 km/h N 7,0 C 9,8 C 0,0 km/h
25.09.2013 03:00 10,0 C 81 % 1013,7 hPa 0,0 l/m 0,0 km/h N 7,0 C 10,0 C 0,0 km/h
25.09.2013 04:00 10,9 C 79 % 1013,5 hPa 0,0 l/m 0,0 km/h N 7,4 C 10,9 C 0,0 km/h
25.09.2013 05:00 12,5 C 79 % 1013,8 hPa 0,0 l/m 0,0 km/h N 8,9 C 12,5 C 0,0 km/h
25.09.2013 06:00 11,6 C 83 % 1014,5 hPa 0,0 l/m 0,0 km/h N 8,9 C 11,6 C 0,0 km/h
25.09.2013 07:00 11,6 C 83 % 1014,8 hPa 0,0 l/m 0,0 km/h N 8,9 C 11,6 C 0,0 km/h
25.09.2013 08:00 12,2 C 82 % 1015,1 hPa 0,0 l/m 0,0 km/h N 9,2 C 12,2 C 0,0 km/h
25.09.2013 09:00 13,4 C 79 % 1015,4 hPa 0,0 l/m 0,0 km/h N 9,8 C 13,4 C 0,0 km/h
25.09.2013 10:00 14,3 C 76 % 1015,5 hPa 0,0 l/m 0,0 km/h N 10,2 C 14,3 C 0,0 km/h
25.09.2013 11:00 15,4 C 75 % 1015,1 hPa 0,0 l/m 3,9 km/h N 11,0 C 15,4 C 14,9 km/h
25.09.2013 12:00 17,3 C 71 % 1014,6 hPa 0,0 l/m 4,6 km/h N 12,0 C 17,3 C 13,3 km/h
25.09.2013 13:00 18,5 C 67 % 1013,7 hPa 0,0 l/m 5,2 km/h N 12,2 C 18,5 C 14,9 km/h
25.09.2013 14:00 19,5 C 65 % 1012,7 hPa 0,0 l/m 3,5 km/h N 12,7 C 19,5 C 11,7 km/h
25.09.2013 15:00 19,4 C 67 % 1012,1 hPa 0,0 l/m 1,4 km/h N 13,1 C 19,4 C 8,0 km/h
25.09.2013 16:00 19,2 C 69 % 1011,4 hPa 0,0 l/m 1,2 km/h N 13,3 C 19,2 C 7,2 km/h
25.09.2013 17:00 18,8 C 70 % 1011,0 hPa 0,0 l/m 0,3 km/h N 13,2 C 18,8 C 4,4 km/h
25.09.2013 18:00 18,0 C 73 % 1010,9 hPa 0,0 l/m 0,4 km/h N 13,1 C 18,0 C 4,0 km/h
25.09.2013 19:00 16,6 C 75 % 1011,1 hPa 0,0 l/m 0,4 km/h N 12,2 C 16,6 C 2,8 km/h
25.09.2013 20:00 14,8 C 79 % 1011,2 hPa 0,0 l/m 0,0 km/h N 11,0 C 14,8 C 0,0 km/h
25.09.2013 21:00 13,3 C 82 % 1011,1 hPa 0,0 l/m 0,0 km/h N 10,3 C 13,3 C 0,0 km/h
25.09.2013 22:00 12,4 C 84 % 1011,0 hPa 0,0 l/m 0,0 km/h N 9,8 C 12,4 C 0,4 km/h
25.09.2013 23:00 12,2 C 83 % 1010,9 hPa 0,0 l/m 0,0 km/h N 9,4 C 12,2 C 0,0 km/h
26.09.2013 00:00 11,8 C 82 % 1010,7 hPa 0,0 l/m 0,0 km/h N 8,9 C 11,8 C 0,0 km/h
26.09.2013 01:00 11,6 C 81 % 1010,6 hPa 0,0 l/m 0,0 km/h N 8,5 C 11,6 C 0,0 km/h
26.09.2013 02:00 11,7 C 80 % 1010,5 hPa 0,0 l/m 0,0 km/h N 8,4 C 11,7 C 0,0 km/h
26.09.2013 03:00 11,8 C 80 % 1010,2 hPa 0,0 l/m 0,0 km/h N 8,4 C 11,8 C 0,0 km/h
26.09.2013 04:00 12,3 C 79 % 1009,9 hPa 0,0 l/m 0,0 km/h N 8,7 C 12,3 C 0,0 km/h
26.09.2013 05:00 11,5 C 80 % 1009,8 hPa 0,0 l/m 0,0 km/h N 8,1 C 11,5 C 0,0 km/h
26.09.2013 06:00 11,1 C 79 % 1009,8 hPa 0,0 l/m 0,0 km/h N 7,6 C 11,1 C 0,0 km/h
26.09.2013 07:00 12,2 C 77 % 1009,8 hPa 0,0 l/m 1,8 km/h N 8,1 C 12,1 C 6,4 km/h
26.09.2013 08:00 17,1 C 79 % 1009,8 hPa 0,0 l/m 6,8 km/h N 13,4 C 16,8 C 20,9 km/h
26.09.2013 09:00 18,3 C 74 % 1009,9 hPa 0,0 l/m 8,4 km/h N 13,6 C 17,4 C 23,7 km/h
26.09.2013 10:00 18,8 C 73 % 1010,2 hPa 0,0 l/m 8,1 km/h N 13,8 C 18,1 C 22,9 km/h
26.09.2013 11:00 19,5 C 71 % 1010,0 hPa 0,0 l/m 9,5 km/h N 14,0 C 18,2 C 27,4 km/h
26.09.2013 12:00 19,8 C 67 % 1010,0 hPa 0,0 l/m 12,8 km/h N 13,5 C 17,7 C 31,8 km/h
26.09.2013 13:00 19,0 C 72 % 1010,9 hPa 0,0 l/m 10,8 km/h N 13,7 C 17,2 C 28,5 km/h
26.09.2013 14:00 17,4 C 78 % 1011,0 hPa 0,3 l/m 5,0 km/h N 13,5 C 17,1 C 17,3 km/h
26.09.2013 15:00 17,8 C 79 % 1010,9 hPa 0,0 l/m 5,8 km/h N 14,1 C 17,7 C 19,7 km/h
26.09.2013 16:00 17,3 C 77 % 1011,0 hPa 0,0 l/m 7,5 km/h N 13,2 C 16,7 C 23,3 km/h
26.09.2013 17:00 16,7 C 77 % 1011,4 hPa 0,0 l/m 6,9 km/h N 12,7 C 16,5 C 21,3 km/h
26.09.2013 18:00 16,5 C 78 % 1012,1 hPa 0,0 l/m 6,8 km/h N 12,5 C 16,1 C 24,5 km/h
26.09.2013 19:00 16,1 C 78 % 1012,6 hPa 0,0 l/m 5,4 km/h N 12,3 C 16,1 C 17,3 km/h
26.09.2013 20:00 15,8 C 78 % 1013,6 hPa 0,0 l/m 4,6 km/h N 12,0 C 15,8 C 15,3 km/h
26.09.2013 21:00 15,4 C 77 % 1014,4 hPa 0,0 l/m 2,1 km/h N 11,3 C 15,4 C 10,4 km/h
26.09.2013 22:00 14,8 C 75 % 1014,9 hPa 0,0 l/m 2,7 km/h N 10,4 C 14,8 C 10,5 km/h
26.09.2013 23:00 14,3 C 75 % 1015,4 hPa 0,0 l/m 2,9 km/h N 10,0 C 14,3 C 11,7 km/h
27.09.2013 00:00 13,7 C 73 % 1016,1 hPa 0,0 l/m 5,2 km/h N 8,8 C 13,5 C 17,3 km/h
27.09.2013 01:00 12,8 C 74 % 1016,9 hPa 0,0 l/m 5,9 km/h N 8,3 C 12,8 C 18,5 km/h
27.09.2013 02:00 12,2 C 74 % 1017,4 hPa 0,0 l/m 1,8 km/h N 7,7 C 12,2 C 8,5 km/h
27.09.2013 03:00 11,3 C 77 % 1017,8 hPa 0,0 l/m 0,1 km/h N 7,4 C 11,3 C 2,4 km/h
27.09.2013 04:00 10,6 C 78 % 1017,7 hPa 0,0 l/m 0,1 km/h N 6,8 C 10,6 C 2,0 km/h
27.09.2013 05:00 10,3 C 78 % 1017,8 hPa 0,0 l/m 0,1 km/h N 6,7 C 10,3 C 1,6 km/h
27.09.2013 06:00 10,2 C 79 % 1018,1 hPa 0,0 l/m 0,2 km/h N 6,7 C 10,2 C 4,0 km/h
27.09.2013 07:00 9,9 C 78 % 1018,4 hPa 0,0 l/m 1,4 km/h N 6,2 C 9,9 C 8,1 km/h
27.09.2013 08:00 9,7 C 76 % 1019,1 hPa 0,0 l/m 0,9 km/h N 5,7 C 9,7 C 7,2 km/h
27.09.2013 09:00 9,9 C 73 % 1019,3 hPa 0,0 l/m 0,5 km/h N 5,3 C 9,9 C 4,8 km/h
27.09.2013 10:00 10,7 C 69 % 1019,5 hPa 0,0 l/m 1,0 km/h N 5,3 C 10,7 C 5,2 km/h
27.09.2013 11:00 12,0 C 64 % 1019,0 hPa 0,0 l/m 0,9 km/h N 5,5 C 12,0 C 6,0 km/h
27.09.2013 12:00 12,6 C 63 % 1018,6 hPa 0,0 l/m 1,0 km/h N 5,7 C 12,6 C 6,0 km/h
27.09.2013 13:00 13,1 C 61 % 1018,0 hPa 0,0 l/m 1,9 km/h N 5,9 C 13,1 C 8,8 km/h
27.09.2013 14:00 13,9 C 61 % 1017,5 hPa 0,0 l/m 0,6 km/h N 6,4 C 13,9 C 5,2 km/h
27.09.2013 15:00 14,1 C 57 % 1017,2 hPa 0,0 l/m 0,9 km/h N 5,8 C 14,1 C 6,0 km/h
27.09.2013 16:00 14,0 C 58 % 1016,7 hPa 0,0 l/m 1,3 km/h N 5,8 C 14,0 C 6,4 km/h
27.09.2013 17:00 13,7 C 59 % 1016,6 hPa 0,0 l/m 0,2 km/h N 5,8 C 13,7 C 3,6 km/h
27.09.2013 18:00 12,8 C 65 % 1016,7 hPa 0,0 l/m 0,0 km/h N 6,3 C 12,8 C 0,4 km/h
27.09.2013 19:00 11,5 C 74 % 1016,8 hPa 0,0 l/m 0,0 km/h N 7,0 C 11,5 C 0,4 km/h
27.09.2013 20:00 10,7 C 77 % 1017,1 hPa 0,0 l/m 0,0 km/h N 6,9 C 10,7 C 0,0 km/h
27.09.2013 21:00 9,2 C 79 % 1017,5 hPa 0,0 l/m 0,0 km/h N 5,7 C 9,2 C 0,4 km/h
27.09.2013 22:00 8,1 C 83 % 1017,5 hPa 0,0 l/m 0,2 km/h N 5,3 C 8,1 C 2,4 km/h
27.09.2013 23:00 7,2 C 83 % 1017,5 hPa 0,0 l/m 0,0 km/h N 4,5 C 7,2 C 0,0 km/h
28.09.2013 00:00 6,4 C 84 % 1017,5 hPa 0,0 l/m 0,0 km/h N 3,9 C 6,4 C 0,0 km/h
28.09.2013 01:00 5,8 C 84 % 1017,3 hPa 0,0 l/m 0,0 km/h N 3,3 C 5,8 C 0,0 km/h
28.09.2013 02:00 5,4 C 84 % 1017,3 hPa 0,0 l/m 0,0 km/h N 2,9 C 5,4 C 0,0 km/h
28.09.2013 03:00 5,1 C 83 % 1017,1 hPa 0,0 l/m 0,0 km/h N 2,5 C 5,1 C 0,4 km/h
28.09.2013 04:00 4,9 C 83 % 1017,0 hPa 0,0 l/m 0,1 km/h N 2,2 C 4,9 C 1,6 km/h
28.09.2013 05:00 4,3 C 83 % 1016,9 hPa 0,0 l/m 0,0 km/h N 1,7 C 4,3 C 0,0 km/h
28.09.2013 06:00 4,1 C 82 % 1017,1 hPa 0,0 l/m 0,0 km/h N 1,4 C 4,1 C 0,0 km/h
28.09.2013 07:00 3,9 C 82 % 1017,3 hPa 0,0 l/m 0,0 km/h N 1,1 C 3,9 C 0,4 km/h
28.09.2013 08:00 5,5 C 80 % 1017,4 hPa 0,0 l/m 0,1 km/h N 2,3 C 5,5 C 2,0 km/h
28.09.2013 09:00 8,2 C 79 % 1017,6 hPa 0,0 l/m 0,3 km/h N 4,7 C 8,2 C 2,8 km/h
28.09.2013 10:00 11,6 C 78 % 1017,5 hPa 0,0 l/m 0,7 km/h N 7,8 C 11,6 C 5,6 km/h
28.09.2013 11:00 13,5 C 65 % 1017,1 hPa 0,0 l/m 1,8 km/h N 7,0 C 13,5 C 8,0 km/h
28.09.2013 12:00 14,2 C 63 % 1016,5 hPa 0,0 l/m 1,8 km/h N 7,2 C 14,2 C 8,0 km/h
28.09.2013 13:00 15,4 C 55 % 1016,1 hPa 0,0 l/m 4,4 km/h N 6,3 C 15,4 C 14,5 km/h
28.09.2013 14:00 15,2 C 57 % 1015,3 hPa 0,0 l/m 3,6 km/h N 6,6 C 15,2 C 11,7 km/h
28.09.2013 15:00 14,8 C 56 % 1015,0 hPa 0,0 l/m 3,5 km/h N 6,1 C 14,8 C 11,3 km/h
28.09.2013 16:00 14,3 C 59 % 1014,6 hPa 0,0 l/m 1,5 km/h N 6,4 C 14,3 C 6,4 km/h
28.09.2013 17:00 13,8 C 62 % 1014,4 hPa 0,0 l/m 0,6 km/h N 6,7 C 13,8 C 5,6 km/h
28.09.2013 18:00 13,0 C 68 % 1014,6 hPa 0,0 l/m 0,0 km/h N 7,1 C 13,0 C 0,0 km/h
28.09.2013 19:00 11,9 C 73 % 1014,9 hPa 0,0 l/m 0,0 km/h N 7,3 C 11,9 C 0,0 km/h
28.09.2013 20:00 10,6 C 77 % 1015,1 hPa 0,0 l/m 0,0 km/h N 6,6 C 10,6 C 0,0 km/h
28.09.2013 21:00 9,8 C 80 % 1015,1 hPa 0,0 l/m 0,0 km/h N 6,5 C 9,8 C 0,0 km/h
28.09.2013 22:00 9,0 C 82 % 1015,0 hPa 0,0 l/m 0,0 km/h N 6,1 C 9,0 C 0,0 km/h
28.09.2013 23:00 8,5 C 84 % 1015,1 hPa 0,0 l/m 0,0 km/h N 6,0 C 8,5 C 0,0 km/h
29.09.2013 00:00 7,7 C 84 % 1015,0 hPa 0,0 l/m 0,0 km/h N 5,2 C 7,7 C 0,0 km/h
29.09.2013 01:00 7,5 C 84 % 1015,1 hPa 0,0 l/m 0,1 km/h N 4,9 C 7,5 C 1,2 km/h
29.09.2013 02:00 8,1 C 84 % 1015,0 hPa 0,0 l/m 0,0 km/h N 5,6 C 8,1 C 0,4 km/h
29.09.2013 03:00 8,3 C 84 % 1014,8 hPa 0,0 l/m 0,0 km/h N 5,7 C 8,3 C 0,0 km/h
29.09.2013 04:00 8,6 C 81 % 1014,9 hPa 0,0 l/m 0,0 km/h N 5,5 C 8,6 C 0,4 km/h
29.09.2013 05:00 8,6 C 80 % 1015,1 hPa 0,0 l/m 0,1 km/h N 5,4 C 8,6 C 1,6 km/h
29.09.2013 06:00 8,6 C 78 % 1015,1 hPa 0,0 l/m 0,1 km/h N 5,0 C 8,6 C 1,6 km/h
29.09.2013 07:00 8,5 C 78 % 1015,4 hPa 0,0 l/m 0,1 km/h N 4,9 C 8,5 C 0,8 km/h
29.09.2013 08:00 8,8 C 76 % 1015,5 hPa 0,0 l/m 0,3 km/h N 4,8 C 8,8 C 3,6 km/h
29.09.2013 09:00 9,1 C 75 % 1015,6 hPa 0,0 l/m 0,0 km/h N 5,0 C 9,1 C 2,0 km/h
29.09.2013 10:00 10,2 C 71 % 1015,7 hPa 0,0 l/m 1,9 km/h N 5,2 C 10,2 C 8,9 km/h
29.09.2013 11:00 10,7 C 71 % 1015,5 hPa 0,0 l/m 2,3 km/h N 5,6 C 10,7 C 8,9 km/h
29.09.2013 12:00 11,1 C 73 % 1015,4 hPa 0,0 l/m 2,7 km/h N 6,3 C 11,1 C 9,3 km/h
29.09.2013 13:00 11,5 C 71 % 1015,2 hPa 0,0 l/m 3,5 km/h N 6,5 C 11,5 C 10,1 km/h
29.09.2013 14:00 11,4 C 72 % 1014,7 hPa 0,0 l/m 5,8 km/h N 6,5 C 11,3 C 16,5 km/h
29.09.2013 15:00 11,3 C 73 % 1014,5 hPa 0,0 l/m 5,4 km/h N 6,7 C 11,3 C 14,5 km/h
29.09.2013 16:00 11,3 C 75 % 1014,3 hPa 0,0 l/m 6,1 km/h N 7,1 C 11,3 C 15,7 km/h
29.09.2013 17:00 10,9 C 77 % 1014,2 hPa 0,0 l/m 5,1 km/h N 6,9 C 10,9 C 16,5 km/h
29.09.2013 18:00 10,5 C 74 % 1014,0 hPa 0,0 l/m 4,0 km/h N 6,0 C 10,5 C 14,1 km/h
29.09.2013 19:00 10,0 C 76 % 1014,0 hPa 0,0 l/m 2,7 km/h N 6,0 C 10,0 C 10,5 km/h
29.09.2013 20:00 9,6 C 79 % 1013,9 hPa 0,0 l/m 1,3 km/h N 6,1 C 9,6 C 7,2 km/h
29.09.2013 21:00 9,8 C 78 % 1013,8 hPa 0,0 l/m 2,0 km/h N 6,1 C 9,8 C 7,6 km/h
29.09.2013 22:00 9,9 C 79 % 1013,4 hPa 0,0 l/m 2,7 km/h N 6,3 C 9,9 C 9,7 km/h
29.09.2013 23:00 10,1 C 78 % 1013,1 hPa 0,0 l/m 2,8 km/h N 6,3 C 10,1 C 11,3 km/h
Min-Datum _ 28.09.13 28.09.13 26.09.13 - 24.09.13 - 28.09.13 28.09.13 24.09.13
_ Min-Zeit 07:15 13:15 05:45 - 19:00 - 07:15 07:15 19:00
Minimum _ 3,8 C 52 % 1009,7 hPa - 0,0 km/h - 1,0 C 3,8 C 0,0 km/h
Max-Datum _ 26.09.13 28.09.13 23.09.13 26.09.13 23.09.13 - 26.09.13 25.09.13 23.09.13
_ Max-Zeit 12:00 00:45 00:00 14:00 10:30 - 15:30 14:30 09:45
Maximum _ 19,9 C 85 % 1023,3 hPa 0,3 l/m 22,2 km/h
N
- 14,2 C 19,6 C 48,3 km/h
N
Durchschnitt _ 13,3 C 73 % 1015,4 hPa #0,3 l/m 3,9 km/h N 8,5 C 12,8 C 11,5 km/h